Atlanta, Georgia
Traffic Map
Current Weather Conditions
Atlanta, Georgia
Few Clouds
Few Clouds
45°
Feels Like: 41°
Wind Chill: 41° Ceiling: Unl
Heat Index: 45° Visibility: 10mi
Dew Point: 18° Wind: 8mph
Humidity: 34% Direction: 340° (NNW)
Pressure: 30.36in Gusts: 0mph
Raw Report DataKATL 272252Z 34007KT 10SM FEW250 07/M08 A3036 RMK AO2 SLP289 T00721078
Traffic Incident Summary
Active as of:
Severity:
Category:
InformationThere was an issue retrieving the traffic information for this location. Please try a different location or try again shortly.
Advertisements
Track Severe Weather on mobile